createdAt,value
2022-08-17T00:00:15.766Z,26.97
2022-08-17T00:03:00.331Z,26.97
2022-08-17T00:05:31.361Z,26.95
2022-08-17T00:07:58.445Z,26.95
2022-08-17T00:10:25.078Z,26.96
2022-08-17T00:12:53.108Z,26.94
2022-08-17T00:15:19.830Z,26.94
2022-08-17T00:17:46.334Z,26.95
2022-08-17T00:20:12.724Z,26.95
2022-08-17T00:22:39.121Z,26.92
2022-08-17T00:25:05.558Z,26.93
2022-08-17T00:27:31.885Z,26.95
2022-08-17T00:29:58.399Z,26.93
2022-08-17T00:33:13.920Z,26.94
2022-08-17T00:35:11.335Z,26.95
2022-08-17T00:37:37.666Z,26.94
2022-08-17T00:40:03.999Z,26.93
2022-08-17T00:42:31.381Z,26.94
2022-08-17T00:44:57.873Z,26.94
2022-08-17T00:47:24.374Z,26.93
2022-08-17T00:49:50.907Z,26.91
2022-08-17T00:52:17.357Z,26.91
2022-08-17T00:54:44.905Z,26.91
2022-08-17T00:57:11.202Z,26.89
2022-08-17T00:59:37.844Z,26.91
2022-08-17T01:02:04.482Z,26.91
2022-08-17T01:04:31.401Z,26.90
2022-08-17T01:06:57.895Z,26.90
2022-08-17T01:09:24.431Z,26.91
2022-08-17T01:11:50.858Z,26.90
2022-08-17T01:14:19.854Z,26.89
2022-08-17T01:16:46.263Z,26.89
2022-08-17T01:19:12.770Z,26.88
2022-08-17T01:21:39.306Z,26.88
2022-08-17T01:24:05.721Z,26.88
2022-08-17T01:26:33.254Z,26.87
2022-08-17T01:28:59.795Z,26.85
2022-08-17T01:31:26.242Z,26.86
2022-08-17T01:33:52.743Z,26.86
2022-08-17T01:36:19.366Z,26.88
2022-08-17T01:38:45.984Z,26.85
2022-08-17T01:41:12.488Z,26.86
2022-08-17T01:43:39.087Z,26.86
2022-08-17T01:46:05.913Z,26.85
2022-08-17T01:48:32.850Z,26.86
2022-08-17T01:50:59.259Z,26.85
2022-08-17T01:53:25.654Z,26.85
2022-08-17T01:55:52.179Z,26.83
2022-08-17T01:58:20.575Z,26.82
2022-08-17T02:01:00.044Z,26.82
2022-08-17T02:03:27.800Z,26.82
2022-08-17T02:05:54.143Z,26.81
2022-08-17T02:08:20.710Z,26.81
2022-08-17T02:11:04.025Z,26.82
2022-08-17T02:13:37.853Z,26.82
2022-08-17T02:16:10.562Z,26.82
2022-08-17T02:18:36.975Z,26.82
2022-08-17T02:21:03.498Z,26.81
2022-08-17T02:23:29.889Z,26.79
2022-08-17T02:25:56.229Z,26.79
2022-08-17T02:28:22.602Z,26.80
2022-08-17T02:31:01.462Z,26.81
2022-08-17T02:33:42.110Z,26.80
2022-08-17T02:36:09.699Z,26.80
2022-08-17T02:38:36.179Z,26.78
2022-08-17T02:41:02.626Z,26.77
2022-08-17T02:43:30.241Z,26.79
2022-08-17T02:45:56.622Z,26.78
2022-08-17T02:48:30.992Z,26.75
2022-08-17T02:50:58.052Z,26.77
2022-08-17T02:53:24.605Z,26.77
2022-08-17T02:55:52.127Z,26.77
2022-08-17T02:58:35.031Z,26.77
2022-08-17T03:01:02.129Z,26.77
2022-08-17T03:03:30.320Z,26.76
2022-08-17T03:06:00.941Z,26.75
2022-08-17T03:08:28.771Z,26.76
2022-08-17T03:10:55.112Z,26.74
2022-08-17T03:13:21.423Z,26.75
2022-08-17T03:15:48.062Z,26.75
2022-08-17T03:18:24.257Z,26.75
2022-08-17T03:20:51.652Z,26.75
2022-08-17T03:23:23.710Z,26.76
2022-08-17T03:25:53.157Z,26.75
2022-08-17T03:28:20.040Z,26.73
2022-08-17T03:30:46.507Z,26.71
2022-08-17T03:33:12.887Z,26.72
2022-08-17T03:35:40.983Z,26.73
2022-08-17T03:38:07.345Z,26.71
2022-08-17T03:40:55.403Z,26.72
2022-08-17T03:43:20.392Z,26.71
2022-08-17T03:45:46.861Z,26.70
2022-08-17T03:48:13.343Z,26.72
2022-08-17T03:50:39.734Z,26.70
2022-08-17T03:53:06.281Z,26.71
2022-08-17T03:55:36.316Z,26.70
2022-08-17T03:58:03.062Z,26.70
2022-08-17T04:00:29.597Z,26.68
2022-08-17T04:02:57.274Z,26.70
2022-08-17T04:05:23.721Z,26.68
2022-08-17T04:07:50.267Z,26.69
2022-08-17T04:10:16.742Z,26.68
2022-08-17T04:12:43.135Z,26.68
2022-08-17T04:15:09.705Z,26.68
2022-08-17T04:17:36.109Z,26.68
2022-08-17T04:20:05.158Z,26.69
2022-08-17T04:22:34.208Z,26.68
2022-08-17T04:25:01.293Z,26.67
2022-08-17T04:27:27.761Z,26.69
2022-08-17T04:29:56.119Z,26.69
2022-08-17T04:33:03.409Z,26.68
2022-08-17T04:35:09.274Z,26.67
2022-08-17T04:37:35.674Z,26.66
2022-08-17T04:40:04.269Z,26.66
2022-08-17T04:42:31.310Z,26.66
2022-08-17T04:44:57.675Z,26.66
2022-08-17T04:47:24.567Z,26.68
2022-08-17T04:49:51.141Z,26.67
2022-08-17T04:52:32.316Z,26.67
2022-08-17T04:55:03.842Z,26.66
2022-08-17T04:57:30.506Z,26.66
2022-08-17T05:00:06.308Z,26.65
2022-08-17T05:02:32.773Z,26.67
2022-08-17T05:04:59.404Z,26.65
2022-08-17T05:07:31.315Z,26.66
2022-08-17T05:09:58.014Z,26.65
2022-08-17T05:12:24.369Z,26.65
2022-08-17T05:14:50.966Z,26.64
2022-08-17T05:17:17.387Z,26.64
2022-08-17T05:19:51.738Z,26.63
2022-08-17T05:22:18.495Z,26.64
2022-08-17T05:24:53.468Z,26.64
2022-08-17T05:27:20.660Z,26.64
2022-08-17T05:29:46.964Z,26.64
2022-08-17T05:32:38.643Z,26.68
2022-08-17T05:35:00.271Z,26.67
2022-08-17T05:37:27.279Z,26.64
2022-08-17T05:39:53.760Z,26.62
2022-08-17T05:42:20.178Z,26.59
2022-08-17T05:44:46.480Z,26.61
2022-08-17T05:47:12.824Z,26.61
2022-08-17T05:49:39.167Z,26.63
2022-08-17T05:52:05.778Z,26.63
2022-08-17T05:54:32.085Z,26.65
2022-08-17T05:56:58.499Z,26.65
2022-08-17T05:59:24.938Z,26.64
2022-08-17T06:01:51.466Z,26.63
2022-08-17T06:04:17.788Z,26.64
2022-08-17T06:06:44.181Z,26.64
2022-08-17T06:09:10.455Z,26.65
2022-08-17T06:11:37.206Z,26.67
2022-08-17T06:14:03.754Z,26.64
2022-08-17T06:16:33.376Z,26.66
2022-08-17T06:19:00.888Z,26.65
2022-08-17T06:21:27.485Z,26.66
2022-08-17T06:23:58.578Z,26.65
2022-08-17T06:26:25.811Z,26.66
2022-08-17T06:28:56.733Z,26.64
2022-08-17T06:31:23.162Z,26.64
2022-08-17T06:33:49.694Z,26.64
2022-08-17T06:36:16.225Z,26.64
2022-08-17T06:38:42.667Z,26.65
2022-08-17T06:41:09.215Z,26.64
2022-08-17T06:43:35.624Z,26.65
2022-08-17T06:46:02.095Z,26.65
2022-08-17T06:48:30.724Z,26.65
2022-08-17T06:50:57.217Z,26.65
2022-08-17T06:53:23.733Z,26.66
2022-08-17T06:55:50.076Z,26.65
2022-08-17T06:58:16.986Z,26.65
2022-08-17T07:00:43.534Z,26.65
2022-08-17T07:03:10.333Z,26.65
2022-08-17T07:05:37.153Z,26.65
2022-08-17T07:08:05.052Z,26.66
2022-08-17T07:10:31.438Z,26.66
2022-08-17T07:12:57.883Z,26.66
2022-08-17T07:15:24.543Z,26.66
2022-08-17T07:17:51.017Z,26.66
2022-08-17T07:20:17.563Z,26.67
2022-08-17T07:22:57.730Z,26.66
2022-08-17T07:25:27.003Z,26.67
2022-08-17T07:27:53.447Z,26.68
2022-08-17T07:30:20.113Z,26.68
2022-08-17T07:32:46.457Z,26.68
2022-08-17T07:35:15.456Z,26.68
2022-08-17T07:37:42.266Z,26.70
2022-08-17T07:40:15.850Z,26.69
2022-08-17T07:42:46.727Z,26.70
2022-08-17T07:45:13.520Z,26.71
2022-08-17T07:47:39.903Z,26.72
2022-08-17T07:50:06.913Z,26.74
2022-08-17T07:52:51.049Z,26.72
2022-08-17T07:55:18.683Z,26.73
2022-08-17T07:57:45.089Z,26.75
2022-08-17T08:00:15.310Z,26.75
2022-08-17T08:02:42.919Z,26.77
2022-08-17T08:05:10.140Z,26.77
2022-08-17T08:07:36.469Z,26.76
2022-08-17T08:10:02.984Z,26.78
2022-08-17T08:12:33.701Z,26.77
2022-08-17T08:15:00.351Z,26.80
2022-08-17T08:17:27.183Z,26.79
2022-08-17T08:19:53.875Z,26.84
2022-08-17T08:22:20.195Z,26.82
2022-08-17T08:24:46.665Z,26.80
2022-08-17T08:27:13.016Z,26.79
2022-08-17T08:29:39.615Z,26.85
2022-08-17T08:32:05.924Z,26.85
2022-08-17T08:34:53.449Z,26.87
2022-08-17T08:37:27.475Z,26.87
2022-08-17T08:39:59.226Z,26.88
2022-08-17T08:42:27.125Z,26.88
2022-08-17T08:44:59.681Z,26.90
2022-08-17T08:47:30.610Z,26.89
2022-08-17T08:50:04.503Z,26.86
2022-08-17T08:52:31.806Z,26.94
2022-08-17T08:54:58.311Z,26.95
2022-08-17T08:57:30.961Z,26.95
2022-08-17T09:00:00.044Z,26.96
2022-08-17T09:02:26.543Z,26.96
2022-08-17T09:05:13.463Z,26.96
2022-08-17T09:07:39.178Z,26.99
2022-08-17T09:10:05.896Z,26.95
2022-08-17T09:12:33.188Z,26.98
2022-08-17T09:14:59.614Z,26.96
2022-08-17T09:17:25.928Z,26.97
2022-08-17T09:19:52.359Z,26.98
2022-08-17T09:22:18.836Z,26.99
2022-08-17T09:24:45.316Z,26.99
2022-08-17T09:27:11.583Z,27.01
2022-08-17T09:29:38.206Z,27.02
2022-08-17T09:32:04.532Z,27.02
2022-08-17T09:34:33.054Z,27.02
2022-08-17T09:36:59.495Z,27.03
2022-08-17T09:39:26.082Z,27.03
2022-08-17T09:41:52.494Z,27.03
2022-08-17T09:44:22.645Z,27.02
2022-08-17T09:46:50.289Z,27.02
2022-08-17T09:49:23.180Z,27.02
2022-08-17T09:51:51.546Z,27.01
2022-08-17T09:54:37.961Z,27.02
2022-08-17T09:57:27.924Z,27.03
2022-08-17T09:59:50.875Z,27.05
2022-08-17T10:02:17.455Z,27.04
2022-08-17T10:04:43.990Z,27.03
2022-08-17T10:07:10.380Z,27.04
2022-08-17T10:09:36.682Z,27.05
2022-08-17T10:12:04.012Z,27.04
2022-08-17T10:14:36.758Z,27.04
2022-08-17T10:17:04.492Z,27.07
2022-08-17T10:19:31.149Z,27.05
2022-08-17T10:22:00.933Z,27.08
2022-08-17T10:24:28.327Z,27.04
2022-08-17T10:26:56.662Z,27.06
2022-08-17T10:29:23.859Z,27.07
2022-08-17T10:31:53.512Z,27.08
2022-08-17T10:34:19.787Z,27.08
2022-08-17T10:36:46.142Z,27.08
2022-08-17T10:39:12.497Z,27.07
2022-08-17T10:41:40.486Z,27.04
2022-08-17T10:44:39.217Z,27.08
2022-08-17T10:46:53.333Z,27.08
2022-08-17T10:49:19.662Z,27.08
2022-08-17T10:51:46.486Z,27.09
2022-08-17T10:54:22.301Z,27.08
2022-08-17T10:56:48.704Z,27.10
2022-08-17T10:59:15.034Z,27.08
2022-08-17T11:01:41.442Z,27.09
2022-08-17T11:04:07.736Z,27.08
2022-08-17T11:06:34.363Z,27.08
2022-08-17T11:09:00.749Z,27.09
2022-08-17T11:11:27.153Z,27.10
2022-08-17T11:13:53.534Z,27.10
2022-08-17T11:16:19.911Z,27.11
2022-08-17T11:18:47.287Z,27.09
2022-08-17T11:21:13.851Z,27.10
2022-08-17T11:23:40.354Z,27.11
2022-08-17T11:26:06.647Z,27.10
2022-08-17T11:28:32.970Z,27.11
2022-08-17T11:30:59.340Z,27.11
2022-08-17T11:33:26.750Z,27.11
2022-08-17T11:35:53.379Z,27.10
2022-08-17T11:38:19.943Z,27.11
2022-08-17T11:40:46.405Z,27.11
2022-08-17T11:43:12.779Z,27.10
2022-08-17T11:45:40.397Z,27.11
2022-08-17T11:48:27.177Z,27.12
2022-08-17T11:50:53.178Z,27.12
2022-08-17T11:53:19.741Z,27.11
2022-08-17T11:55:46.185Z,27.21
2022-08-17T11:58:12.814Z,27.14
2022-08-17T12:00:39.314Z,27.08
2022-08-17T12:03:06.229Z,27.06
2022-08-17T12:05:32.942Z,27.10
2022-08-17T12:07:59.260Z,27.09
2022-08-17T12:10:25.621Z,27.19
2022-08-17T12:12:53.218Z,27.16
2022-08-17T12:15:19.522Z,27.18
2022-08-17T12:17:45.860Z,27.19
2022-08-17T12:20:12.858Z,27.13
2022-08-17T12:22:39.388Z,27.38
2022-08-17T12:25:06.415Z,27.29
2022-08-17T12:27:52.992Z,27.37
2022-08-17T12:30:19.258Z,27.36
2022-08-17T12:32:45.708Z,27.41
2022-08-17T12:35:12.027Z,27.37
2022-08-17T12:37:38.323Z,27.35
2022-08-17T12:40:04.886Z,27.34
2022-08-17T12:42:31.349Z,27.34
2022-08-17T12:44:59.070Z,27.33
2022-08-17T12:47:25.470Z,27.33
2022-08-17T12:49:55.810Z,27.34
2022-08-17T12:52:22.292Z,27.34
2022-08-17T12:54:48.749Z,27.34
2022-08-17T12:57:15.087Z,27.37
2022-08-17T12:59:41.664Z,27.36
2022-08-17T13:02:08.376Z,27.35
2022-08-17T13:04:35.099Z,27.35
2022-08-17T13:07:01.538Z,27.36
2022-08-17T13:09:35.691Z,27.35
2022-08-17T13:12:06.362Z,27.36
2022-08-17T13:14:34.194Z,27.36
2022-08-17T13:17:00.754Z,27.36
2022-08-17T13:19:39.693Z,27.36
2022-08-17T13:22:08.166Z,27.36
2022-08-17T13:24:38.391Z,27.38
2022-08-17T13:27:08.107Z,27.35
2022-08-17T13:29:35.122Z,27.35
2022-08-17T13:32:04.385Z,27.35
2022-08-17T13:34:31.530Z,27.36
2022-08-17T13:36:59.697Z,27.36
2022-08-17T13:39:26.875Z,27.37
2022-08-17T13:41:54.270Z,27.37
2022-08-17T13:44:20.693Z,27.39
2022-08-17T13:46:47.346Z,27.40
2022-08-17T13:49:19.373Z,27.40
2022-08-17T13:51:45.746Z,27.40
2022-08-17T13:54:12.101Z,27.40
2022-08-17T13:56:39.495Z,27.40
2022-08-17T13:59:06.285Z,27.42
2022-08-17T14:01:32.744Z,27.42
2022-08-17T14:03:59.511Z,27.43
2022-08-17T14:06:52.334Z,27.44
2022-08-17T14:09:12.223Z,27.44
2022-08-17T14:11:38.647Z,27.44
2022-08-17T14:14:05.192Z,27.44
2022-08-17T14:16:31.842Z,27.44
2022-08-17T14:18:58.213Z,27.44
2022-08-17T14:21:24.623Z,27.45
2022-08-17T14:23:54.570Z,27.45
2022-08-17T14:26:21.659Z,27.45
2022-08-17T14:28:56.247Z,27.45
2022-08-17T14:31:23.125Z,27.45
2022-08-17T14:33:49.458Z,27.45
2022-08-17T14:36:15.809Z,27.45
2022-08-17T14:38:42.438Z,27.45
2022-08-17T14:41:08.833Z,27.45
2022-08-17T14:43:35.179Z,27.46
2022-08-17T14:46:01.674Z,27.46
2022-08-17T14:48:28.606Z,27.46
2022-08-17T14:50:55.078Z,27.46
2022-08-17T14:53:21.566Z,27.46
2022-08-17T14:55:47.957Z,27.48
2022-08-17T14:58:15.070Z,27.48
2022-08-17T15:00:41.417Z,27.48
2022-08-17T15:03:08.115Z,27.49
2022-08-17T15:05:34.825Z,27.50
2022-08-17T15:08:01.491Z,27.50
2022-08-17T15:10:27.858Z,27.52
2022-08-17T15:12:54.250Z,27.52
2022-08-17T15:15:20.621Z,27.52
2022-08-17T15:17:46.979Z,27.52
2022-08-17T15:20:15.000Z,27.54
2022-08-17T15:22:41.818Z,27.53
2022-08-17T15:25:08.211Z,27.54
2022-08-17T15:27:34.936Z,27.56
2022-08-17T15:30:01.316Z,27.56
2022-08-17T15:32:27.732Z,27.55
2022-08-17T15:34:54.294Z,27.56
2022-08-17T15:37:20.937Z,27.55
2022-08-17T15:39:48.715Z,27.56
2022-08-17T15:42:15.032Z,27.57
2022-08-17T15:44:41.463Z,27.56
2022-08-17T15:47:07.892Z,27.57
2022-08-17T15:49:34.234Z,27.57
2022-08-17T15:52:00.583Z,27.57
2022-08-17T15:54:26.962Z,27.57
2022-08-17T15:57:00.921Z,27.58
2022-08-17T15:59:27.704Z,27.59
2022-08-17T16:03:15.301Z,27.59
2022-08-17T16:04:43.880Z,27.58
2022-08-17T16:07:10.567Z,27.60
2022-08-17T16:09:37.605Z,27.59
2022-08-17T16:12:03.990Z,27.59
2022-08-17T16:14:33.781Z,27.59
2022-08-17T16:17:01.790Z,27.58
2022-08-17T16:19:28.225Z,27.59
2022-08-17T16:21:54.978Z,27.58
2022-08-17T16:24:21.633Z,27.57
2022-08-17T16:26:47.935Z,27.58
2022-08-17T16:29:14.476Z,27.59
2022-08-17T16:31:40.877Z,27.59
2022-08-17T16:34:17.284Z,27.59
2022-08-17T16:36:54.812Z,27.59
2022-08-17T16:39:22.333Z,27.58
2022-08-17T16:41:49.021Z,27.59
2022-08-17T16:44:15.760Z,27.59
2022-08-17T16:46:45.615Z,27.58
2022-08-17T16:49:12.434Z,27.59
2022-08-17T16:51:54.074Z,27.59
2022-08-17T16:54:22.930Z,27.58
2022-08-17T16:56:49.283Z,27.58
2022-08-17T16:59:30.978Z,27.57
2022-08-17T17:02:02.513Z,27.58
2022-08-17T17:04:28.996Z,27.59
2022-08-17T17:07:01.802Z,27.58
2022-08-17T17:09:28.298Z,27.58
2022-08-17T17:11:54.786Z,27.58
2022-08-17T17:14:21.117Z,27.58
2022-08-17T17:16:47.481Z,27.58
2022-08-17T17:19:13.965Z,27.57
2022-08-17T17:21:40.775Z,27.58
2022-08-17T17:24:07.231Z,27.57
2022-08-17T17:26:33.890Z,27.56
2022-08-17T17:29:00.312Z,27.56
2022-08-17T17:31:26.896Z,27.56
2022-08-17T17:33:53.216Z,27.55
2022-08-17T17:36:19.710Z,27.57
2022-08-17T17:38:46.092Z,27.56
2022-08-17T17:41:12.470Z,27.55
2022-08-17T17:43:40.583Z,27.56
2022-08-17T17:46:27.175Z,27.56
2022-08-17T17:48:54.090Z,27.57
2022-08-17T17:52:03.618Z,27.56
2022-08-17T17:54:06.858Z,27.55
2022-08-17T17:56:42.982Z,27.56
2022-08-17T17:59:12.619Z,27.55
2022-08-17T18:01:39.520Z,27.55
2022-08-17T18:04:07.082Z,27.54
2022-08-17T18:06:45.330Z,27.55
2022-08-17T18:09:11.698Z,27.54
2022-08-17T18:11:45.915Z,27.54
2022-08-17T18:14:18.531Z,27.54
2022-08-17T18:16:44.910Z,27.55
2022-08-17T18:19:11.250Z,27.55
2022-08-17T18:21:37.992Z,27.54
2022-08-17T18:24:04.345Z,27.55
2022-08-17T18:26:30.750Z,27.55
2022-08-17T18:28:58.537Z,27.54
2022-08-17T18:31:25.018Z,27.54
2022-08-17T18:33:52.789Z,27.55
2022-08-17T18:36:19.221Z,27.53
2022-08-17T18:38:45.623Z,27.54
2022-08-17T18:41:12.010Z,27.54
2022-08-17T18:43:43.943Z,27.53
2022-08-17T18:46:28.219Z,27.55
2022-08-17T18:48:55.795Z,27.54
2022-08-17T18:51:37.252Z,27.65
2022-08-17T18:54:08.917Z,27.56
2022-08-17T18:56:35.218Z,27.54
2022-08-17T18:59:01.581Z,27.53
2022-08-17T19:01:42.071Z,27.53
2022-08-17T19:04:14.811Z,27.53
2022-08-17T19:06:41.185Z,27.52
2022-08-17T19:09:10.536Z,27.53
2022-08-17T19:11:36.958Z,27.53
2022-08-17T19:14:03.418Z,27.52
2022-08-17T19:16:29.756Z,27.52
2022-08-17T19:18:56.113Z,27.51
2022-08-17T19:21:23.179Z,27.50
2022-08-17T19:23:53.877Z,27.50
2022-08-17T19:26:54.747Z,27.51
2022-08-17T19:29:07.266Z,27.51
2022-08-17T19:31:33.727Z,27.50
2022-08-17T19:34:00.088Z,27.49
2022-08-17T19:36:26.718Z,27.49
2022-08-17T19:38:53.313Z,27.48
2022-08-17T19:41:19.664Z,27.48
2022-08-17T19:43:46.153Z,27.49
2022-08-17T19:46:12.659Z,27.48
2022-08-17T19:48:38.977Z,27.48
2022-08-17T19:51:05.336Z,27.48
2022-08-17T19:53:47.789Z,27.48
2022-08-17T19:56:18.135Z,27.48
2022-08-17T19:58:44.730Z,27.46
2022-08-17T20:01:11.559Z,27.47
2022-08-17T20:03:38.011Z,27.46
2022-08-17T20:06:13.511Z,27.46
2022-08-17T20:08:40.591Z,27.46
2022-08-17T20:11:06.966Z,27.45
2022-08-17T20:13:34.046Z,27.46
2022-08-17T20:16:00.532Z,27.45
2022-08-17T20:18:26.904Z,27.45
2022-08-17T20:20:54.794Z,27.46
2022-08-17T20:23:22.246Z,27.45
2022-08-17T20:25:48.612Z,27.45
2022-08-17T20:28:14.982Z,27.45
2022-08-17T20:30:41.341Z,27.43
2022-08-17T20:33:08.302Z,27.44
2022-08-17T20:35:39.610Z,27.43
2022-08-17T20:38:05.950Z,27.43
2022-08-17T20:40:32.460Z,27.44
2022-08-17T20:42:58.981Z,27.43
2022-08-17T20:45:28.987Z,27.44
2022-08-17T20:48:20.093Z,27.44
2022-08-17T20:50:42.150Z,27.43
2022-08-17T20:53:08.570Z,27.43
2022-08-17T20:55:34.959Z,27.42
2022-08-17T20:58:01.369Z,27.41
2022-08-17T21:00:27.744Z,27.42
2022-08-17T21:02:54.293Z,27.41
2022-08-17T21:05:20.576Z,27.41
2022-08-17T21:07:47.007Z,27.41
2022-08-17T21:10:13.669Z,27.40
2022-08-17T21:12:40.480Z,27.41
2022-08-17T21:15:06.906Z,27.41
2022-08-17T21:17:33.289Z,27.39
2022-08-17T21:20:11.023Z,27.39
2022-08-17T21:22:38.189Z,27.41
2022-08-17T21:25:06.874Z,27.40
2022-08-17T21:27:33.233Z,27.39
2022-08-17T21:29:59.788Z,27.40
2022-08-17T21:32:26.823Z,27.39
2022-08-17T21:34:53.223Z,27.39
2022-08-17T21:37:19.726Z,27.38
2022-08-17T21:39:46.577Z,27.39
2022-08-17T21:42:12.968Z,27.39
2022-08-17T21:44:39.302Z,27.38
2022-08-17T21:47:05.989Z,27.38
2022-08-17T21:49:34.990Z,27.37
2022-08-17T21:52:04.510Z,27.38
2022-08-17T21:54:30.866Z,27.38
2022-08-17T21:56:57.257Z,27.37
2022-08-17T21:59:23.850Z,27.38
2022-08-17T22:01:53.972Z,27.50
2022-08-17T22:04:20.400Z,27.39
2022-08-17T22:06:57.321Z,27.38
2022-08-17T22:09:24.223Z,27.37
2022-08-17T22:11:50.606Z,27.38
2022-08-17T22:14:18.318Z,27.37
2022-08-17T22:16:47.749Z,27.38
2022-08-17T22:19:14.154Z,27.37
2022-08-17T22:21:40.813Z,27.36
2022-08-17T22:24:07.234Z,27.38
2022-08-17T22:26:33.711Z,27.37
2022-08-17T22:29:00.472Z,27.36
2022-08-17T22:31:28.185Z,27.36
2022-08-17T22:33:54.783Z,27.35
2022-08-17T22:36:22.118Z,27.35
2022-08-17T22:38:48.544Z,27.35
2022-08-17T22:41:14.936Z,27.35
2022-08-17T22:43:41.518Z,27.35
2022-08-17T22:46:11.072Z,27.35
2022-08-17T22:48:37.393Z,27.35
2022-08-17T22:51:03.726Z,27.34
2022-08-17T22:53:39.422Z,27.35
2022-08-17T22:56:05.783Z,27.35
2022-08-17T22:58:32.244Z,27.34
2022-08-17T23:00:58.640Z,27.35
2022-08-17T23:03:25.068Z,27.33
2022-08-17T23:05:51.612Z,27.34
2022-08-17T23:08:17.962Z,27.34
2022-08-17T23:10:44.310Z,27.32
2022-08-17T23:13:10.881Z,27.32
2022-08-17T23:15:37.243Z,27.32
2022-08-17T23:18:03.837Z,27.33
2022-08-17T23:20:30.177Z,27.32
2022-08-17T23:22:56.733Z,27.32
2022-08-17T23:25:23.095Z,27.32
2022-08-17T23:27:49.784Z,27.31
2022-08-17T23:30:16.456Z,27.32
2022-08-17T23:32:47.389Z,27.31
2022-08-17T23:35:39.258Z,27.31
2022-08-17T23:38:07.131Z,27.31
2022-08-17T23:40:33.705Z,27.30
2022-08-17T23:43:00.046Z,27.29
2022-08-17T23:45:31.197Z,27.29
2022-08-17T23:47:58.040Z,27.29
2022-08-17T23:50:24.489Z,27.28
2022-08-17T23:52:56.288Z,27.29
2022-08-17T23:55:22.720Z,27.28
2022-08-17T23:57:49.444Z,27.28
